KBIJ

Early County Airport

Blakely, Georgia, USA
METAR KBIJ 101555Z AUTO 29007KT 10SM OVC009 05/02 A3019 RMK AO2
Observed Flight Rules
Dec-10 @ 15:55 UTC (18 minutes ago) Instrument Flight Rules
Wind Visibility Clouds
290° at 7 knots 10 miles
  • Overcast at 900' AGL
Temperatures Readings
Current 5°C / 41°F
Dewpoint 2°C / 36°F
Humidity 81%
Altimeter 30.19" Hg
Pressure 1022 hPa
Elevation 65
METAR KBIJ 101555Z AUTO 29007KT 10SM OVC009 05/02 A3019 RMK AO2
Observed Flight Rules
Dec-10 @ 15:55 UTC
(18 minutes ago)
IFR
Wind Visibility
290° at 7 knots 10 miles
Clouds
  • Overcast at 900' AGL
Temperature Dewpoint
5°C / 41°F 2°C / 36°F
Humidity Altimeter Pressure
81% 30.19" Hg 1022 hPa